CheckWX is a tool to help pilots better visualize weather data.  It is not intended as a substitute for an official pre-flight weather briefing.

06:56:02 UTC

RCTP TAF
Taiwan Taoyuan International Airport
Taipei, Taiwan
TAF RCTP 170500Z 1706/1812 30005KT 9999 FEW015 BKN032 TEMPO 1706/1712 03008KT BECMG 1712/1714 20005KT BECMG 1800/1802 31005KT

Jun-17@
06:00 UTC

Jun-17 @ 06:00 UTC

Jun-17@
12:00 UTC

Jun-17 @ 12:00 UTC

TAF RCTP 170500Z 1706/1812 30005KT 9999 FEW015 BKN032
Wind
  • 300° at 5 KTS
Cloud Levels
  • Few at 1,500' AGL
  • Broken at 3,200' AGL

Jun-17@
06:00 UTC

Jun-17 @ 06:00 UTC

Jun-17@
12:00 UTC

Jun-17 @ 12:00 UTC

TEMPO 1706/1712 03008KT

Temporary

Temporary Changes expected for less than half the time period

Wind
  • 030° at 8 KTS

Jun-17@
12:00 UTC

Jun-17 @ 12:00 UTC

Jun-18@
00:00 UTC

Jun-18 @ 00:00 UTC

BECMG 1712/1714 20005KT

Becoming

Becoming Conditions expected by Mon, Jun 17, 2019 @ 14:00 UTC

Wind
  • 200° at 5 KTS
Cloud Levels
  • Few at 1,500' AGL
  • Broken at 3,200' AGL

Jun-18@
00:00 UTC

Jun-18 @ 00:00 UTC

Jun-18@
12:00 UTC

Jun-18 @ 12:00 UTC

BECMG 1800/1802 31005KT

Becoming

Becoming Conditions expected by Tue, Jun 18, 2019 @ 02:00 UTC

Wind
  • 310° at 5 KTS
Cloud Levels
  • Few at 1,500' AGL
  • Broken at 3,200' AGL